Time;durP1;ratioP1;P1;durP2;ratioP2;P2;SDS_P1;SDS_P2;PMS_P1;PMS_P2;Temp;Humidity;BMP_temperature;BMP_pressure;BME280_temperature;BME280_humidity;BME280_pressure;Samples;Min_cycle;Max_cycle;Signal;HPM_P1;HPM_P2
2023/06/18 00:00:39;;;;;;;6.20;4.85;;;20.90;95.20;;;;;;5032373;28;20400;-38
2023/06/18 00:03:05;;;;;;;5.78;4.82;;;20.90;95.30;;;;;;5031284;28;20032;-39
2023/06/18 00:05:31;;;;;;;6.10;4.65;;;20.90;95.30;;;;;;5031327;28;20028;-40
2023/06/18 00:07:57;;;;;;;5.28;4.72;;;20.90;95.30;;;;;;5030882;28;20040;-38
2023/06/18 00:10:22;;;;;;;6.00;4.63;;;20.90;95.30;;;;;;5031060;28;20432;-33
2023/06/18 00:12:48;;;;;;;5.40;4.53;;;20.90;95.30;;;;;;5031133;28;20022;-36
2023/06/18 00:15:14;;;;;;;5.50;4.70;;;20.80;95.30;;;;;;5031220;28;20481;-35
2023/06/18 00:17:39;;;;;;;5.32;4.82;;;20.90;95.30;;;;;;5031060;28;20033;-39
2023/06/18 00:20:05;;;;;;;5.43;4.50;;;20.90;95.30;;;;;;5030995;28;20021;-40
2023/06/18 00:22:31;;;;;;;5.15;4.65;;;20.90;95.30;;;;;;5031469;28;20355;-36
2023/06/18 00:24:57;;;;;;;6.53;4.72;;;20.90;95.30;;;;;;5031219;28;20311;-36
2023/06/18 00:27:22;;;;;;;5.22;4.72;;;20.90;95.30;;;;;;5030888;28;20085;-37
2023/06/18 00:29:48;;;;;;;5.30;4.80;;;20.90;95.30;;;;;;5031375;28;20393;-37
2023/06/18 00:32:14;;;;;;;6.30;4.88;;;20.80;95.30;;;;;;5030844;28;20030;-38
2023/06/18 00:34:41;;;;;;;7.03;4.88;;;20.90;95.30;;;;;;5031664;28;20044;-37
2023/06/18 00:37:09;;;;;;;6.45;4.88;;;20.80;95.30;;;;;;5035043;28;20018;-37
2023/06/18 00:39:36;;;;;;;5.85;4.80;;;20.80;95.30;;;;;;5035610;28;20026;-37
2023/06/18 00:42:02;;;;;;;5.75;4.80;;;20.80;95.30;;;;;;5018593;28;20416;-40
2023/06/18 00:44:28;;;;;;;6.40;4.75;;;20.80;95.30;;;;;;5035176;28;20088;-36
2023/06/18 00:46:56;;;;;;;7.82;5.18;;;20.80;95.30;;;;;;5035431;28;20026;-34
2023/06/18 00:49:22;;;;;;;5.35;4.53;;;20.80;95.30;;;;;;5035119;28;20028;-36
2023/06/18 00:51:49;;;;;;;5.15;4.53;;;20.80;95.30;;;;;;5035361;28;20099;-35
2023/06/18 00:54:15;;;;;;;5.90;4.60;;;20.80;95.30;;;;;;5034781;28;20049;-37
2023/06/18 00:56:50;;;;;;;5.40;4.53;;;20.80;95.40;;;;;;5035185;28;20505;-38
2023/06/18 00:59:22;;;;;;;5.97;4.63;;;20.80;95.40;;;;;;5034720;28;20036;-37
2023/06/18 01:01:53;;;;;;;7.47;4.78;;;20.80;95.40;;;;;;5035968;28;20037;-40
2023/06/18 01:04:21;;;;;;;5.68;4.35;;;20.80;95.30;;;;;;5034880;28;20018;-42
2023/06/18 01:06:51;;;;;;;5.03;4.13;;;20.80;95.40;;;;;;5034713;28;20091;-37
2023/06/18 01:09:27;;;;;;;5.82;4.50;;;20.80;95.40;;;;;;5034769;28;20075;-36
2023/06/18 01:11:54;;;;;;;6.45;4.50;;;20.80;95.40;;;;;;5034316;28;20191;-41
2023/06/18 01:14:21;;;;;;;6.38;4.40;;;20.80;95.40;;;;;;5035002;28;20025;-38
2023/06/18 01:16:53;;;;;;;5.35;4.38;;;20.70;95.30;;;;;;5035157;28;20423;-42
2023/06/18 01:19:49;;;;;;;5.32;4.38;;;20.80;95.40;;;;;;5034317;28;20017;-37
2023/06/18 01:22:44;;;;;;;5.30;4.55;;;20.80;95.40;;;;;;5034331;28;20018;-37
2023/06/18 01:25:10;;;;;;;5.45;4.28;;;20.80;95.40;;;;;;5034328;28;20046;-34
2023/06/18 01:27:41;;;;;;;6.30;4.80;;;20.70;95.40;;;;;;5033940;28;20120;-37
2023/06/18 01:30:11;;;;;;;4.80;4.30;;;20.70;95.40;;;;;;5034151;28;20099;-40
2023/06/18 01:32:38;;;;;;;7.80;4.90;;;20.70;95.30;;;;;;5035119;28;20543;-37
2023/06/18 01:35:08;;;;;;;5.88;4.55;;;20.80;95.30;;;;;;5034109;28;20412;-40
2023/06/18 01:37:52;;;;;;;6.32;5.00;;;20.70;95.40;;;;;;5035038;28;20044;-35
2023/06/18 01:40:26;;;;;;;5.18;4.30;;;20.70;95.40;;;;;;5033703;28;20428;-40
2023/06/18 01:42:59;;;;;;;5.85;4.53;;;20.70;95.40;;;;;;5033931;28;20025;-43
2023/06/18 01:45:33;;;;;;;5.60;4.22;;;20.70;95.40;;;;;;5033970;28;20025;-37
2023/06/18 01:48:02;;;;;;;7.63;4.90;;;20.70;95.40;;;;;;5033732;28;20382;-36
2023/06/18 01:50:28;;;;;;;5.90;4.50;;;20.70;95.40;;;;;;5033482;28;20029;-36
2023/06/18 01:52:56;;;;;;;5.57;4.38;;;20.70;95.40;;;;;;5034414;28;20037;-41
2023/06/18 01:55:22;;;;;;;5.50;4.45;;;20.70;95.40;;;;;;5034547;28;20029;-36
2023/06/18 01:57:48;;;;;;;5.55;4.85;;;20.70;95.40;;;;;;5035042;28;20025;-36
2023/06/18 02:00:14;;;;;;;5.18;4.30;;;20.70;95.40;;;;;;5034461;28;20052;-36
2023/06/18 02:02:40;;;;;;;6.88;4.88;;;20.70;95.40;;;;;;5034256;28;20060;-40
2023/06/18 02:05:06;;;;;;;5.90;4.32;;;20.70;95.40;;;;;;5035036;28;20384;-36
2023/06/18 02:07:32;;;;;;;5.20;4.53;;;20.70;95.70;;;;;;5033942;28;20034;-37
2023/06/18 02:09:57;;;;;;;8.68;4.22;;;20.70;95.40;;;;;;5033853;28;20022;-37
2023/06/18 02:12:23;;;;;;;4.95;4.07;;;20.70;95.40;;;;;;5033422;28;20079;-34
2023/06/18 02:14:49;;;;;;;5.32;4.10;;;20.70;95.40;;;;;;5033242;28;20087;-37
2023/06/18 02:17:14;;;;;;;6.22;4.30;;;20.70;95.40;;;;;;5034010;28;20481;-40
2023/06/18 02:19:40;;;;;;;4.90;4.13;;;20.70;95.40;;;;;;5033493;28;20079;-37
2023/06/18 02:22:06;;;;;;;7.90;4.90;;;20.70;95.40;;;;;;5034506;28;20034;-37
2023/06/18 02:24:32;;;;;;;5.55;4.30;;;20.60;95.40;;;;;;5033145;28;20033;-40
2023/06/18 02:26:59;;;;;;;5.63;4.63;;;20.60;95.40;;;;;;5034033;28;20021;-34
2023/06/18 02:29:25;;;;;;;5.28;4.28;;;20.60;95.40;;;;;;5015080;28;20112;-36
2023/06/18 02:31:51;;;;;;;6.38;4.47;;;20.60;95.40;;;;;;5033432;28;20109;-37
2023/06/18 02:34:18;;;;;;;6.07;4.85;;;20.60;95.40;;;;;;5033780;28;20488;-37
2023/06/18 02:36:44;;;;;;;6.47;4.20;;;20.60;95.40;;;;;;5033333;28;20029;-34
2023/06/18 02:39:10;;;;;;;5.40;4.18;;;20.60;95.40;;;;;;5032839;28;20006;-40
2023/06/18 02:41:36;;;;;;;6.78;4.25;;;20.60;95.40;;;;;;5032539;28;20094;-36
2023/06/18 02:44:02;;;;;;;4.35;3.95;;;20.60;95.40;;;;;;5032726;28;20467;-38
2023/06/18 02:46:27;;;;;;;5.95;4.95;;;20.60;95.40;;;;;;5032732;28;20551;-38
2023/06/18 02:48:53;;;;;;;5.03;4.53;;;20.60;95.30;;;;;;5032440;28;20076;-35
2023/06/18 02:51:18;;;;;;;6.43;4.13;;;20.60;95.40;;;;;;5032621;28;20021;-40
2023/06/18 02:53:44;;;;;;;5.00;4.40;;;20.60;95.40;;;;;;5032566;28;20029;-34
2023/06/18 02:56:11;;;;;;;5.32;4.43;;;20.60;95.40;;;;;;5034604;28;20385;-37
2023/06/18 02:58:36;;;;;;;5.07;4.25;;;20.60;95.40;;;;;;5031670;28;20021;-40
2023/06/18 03:01:02;;;;;;;5.60;4.65;;;20.60;95.40;;;;;;5032272;28;20108;-36
2023/06/18 03:03:28;;;;;;;6.70;5.03;;;20.60;95.40;;;;;;5032263;28;20048;-43
2023/06/18 03:05:54;;;;;;;4.28;3.83;;;20.60;95.70;;;;;;5032320;28;20092;-37
2023/06/18 03:08:20;;;;;;;6.72;4.38;;;20.60;95.40;;;;;;5032926;28;20037;-36
2023/06/18 03:10:46;;;;;;;5.18;4.50;;;20.60;95.40;;;;;;5032077;28;20032;-34
2023/06/18 03:13:12;;;;;;;5.18;4.25;;;20.60;95.40;;;;;;5032145;28;20029;-43
2023/06/18 03:15:38;;;;;;;4.78;4.03;;;20.60;95.40;;;;;;5032331;28;20017;-36
2023/06/18 03:18:04;;;;;;;5.25;4.57;;;20.60;95.40;;;;;;5031872;28;20560;-37
2023/06/18 03:20:30;;;;;;;6.03;4.72;;;20.60;95.40;;;;;;5032546;28;20370;-35
2023/06/18 03:22:56;;;;;;;6.13;4.38;;;20.60;95.40;;;;;;5032023;28;20109;-42
2023/06/18 03:25:22;;;;;;;6.03;4.43;;;20.50;95.30;;;;;;5031963;28;20101;-40
2023/06/18 03:27:48;;;;;;;5.18;4.65;;;20.50;95.40;;;;;;5032002;28;20026;-36
2023/06/18 03:30:14;;;;;;;5.43;4.45;;;20.60;95.40;;;;;;5031656;28;20021;-36
2023/06/18 03:32:40;;;;;;;7.68;4.60;;;20.60;95.40;;;;;;5031684;28;20038;-39
2023/06/18 03:35:06;;;;;;;5.15;4.22;;;20.50;95.30;;;;;;5031823;28;20021;-40
2023/06/18 03:37:32;;;;;;;5.93;4.45;;;20.50;95.30;;;;;;5031696;28;20032;-35
2023/06/18 03:39:58;;;;;;;5.65;4.60;;;20.50;95.30;;;;;;5014268;28;20423;-37
2023/06/18 03:42:24;;;;;;;5.03;4.28;;;20.50;95.70;;;;;;5031591;28;20503;-37
2023/06/18 03:44:50;;;;;;;5.10;4.07;;;20.50;95.30;;;;;;5031667;28;20103;-37
2023/06/18 03:47:17;;;;;;;6.13;4.20;;;20.50;95.30;;;;;;5032156;28;20057;-40
2023/06/18 03:49:42;;;;;;;5.15;4.20;;;20.50;95.30;;;;;;5033115;28;20500;-40
2023/06/18 03:52:08;;;;;;;6.75;4.45;;;20.50;95.30;;;;;;5031438;28;20033;-37
2023/06/18 03:54:35;;;;;;;5.28;4.13;;;20.50;95.30;;;;;;5032187;28;20045;-38
2023/06/18 03:57:01;;;;;;;6.32;4.45;;;20.50;95.30;;;;;;5031335;28;20087;-40
2023/06/18 03:59:27;;;;;;;7.38;4.47;;;20.50;95.30;;;;;;5031429;28;20025;-40
2023/06/18 04:01:53;;;;;;;4.90;4.40;;;20.50;95.30;;;;;;5032700;28;20039;-40
2023/06/18 04:04:18;;;;;;;5.53;4.63;;;20.50;95.30;;;;;;5031779;28;20025;-38
2023/06/18 04:06:44;;;;;;;5.85;4.78;;;20.50;95.30;;;;;;5013338;28;20029;-34
2023/06/18 04:09:10;;;;;;;6.28;4.68;;;20.50;95.30;;;;;;5031279;28;20029;-34
2023/06/18 04:11:38;;;;;;;5.53;4.45;;;20.50;95.30;;;;;;5031067;28;20024;-36
2023/06/18 04:14:04;;;;;;;5.35;4.40;;;20.50;95.30;;;;;;5031268;28;20104;-41
2023/06/18 04:16:30;;;;;;;5.47;4.30;;;20.50;95.30;;;;;;5031120;28;20013;-38
2023/06/18 04:18:55;;;;;;;4.97;4.30;;;20.50;95.30;;;;;;5031092;28;20442;-36
2023/06/18 04:21:21;;;;;;;4.63;4.18;;;20.50;95.30;;;;;;5031611;28;20025;-40
2023/06/18 04:23:47;;;;;;;8.63;4.80;;;20.50;95.30;;;;;;5031122;28;20112;-34
2023/06/18 04:26:12;;;;;;;5.38;4.53;;;20.50;95.30;;;;;;5031198;28;20031;-37
2023/06/18 04:28:38;;;;;;;7.65;4.80;;;20.50;95.30;;;;;;5030884;28;20412;-37
2023/06/18 04:31:03;;;;;;;5.50;4.78;;;20.50;95.30;;;;;;5030694;28;20504;-37
2023/06/18 04:33:29;;;;;;;4.60;4.10;;;20.50;95.30;;;;;;5031106;28;20022;-34
2023/06/18 04:35:55;;;;;;;4.68;4.07;;;20.50;95.30;;;;;;5031245;28;20025;-34
2023/06/18 04:38:21;;;;;;;5.70;4.28;;;20.50;95.30;;;;;;5030932;28;20021;-40
2023/06/18 04:40:48;;;;;;;4.97;4.22;;;20.50;95.30;;;;;;5030780;28;20447;-36
2023/06/18 04:43:14;;;;;;;5.50;4.10;;;20.50;95.30;;;;;;5030947;28;20029;-38
2023/06/18 04:45:40;;;;;;;5.30;4.25;;;20.50;95.30;;;;;;5031128;28;20030;-40
2023/06/18 04:48:07;;;;;;;4.75;4.25;;;20.40;95.30;;;;;;5031227;28;20033;-37
2023/06/18 04:50:33;;;;;;;4.75;4.25;;;20.50;95.30;;;;;;5030800;28;20017;-37
2023/06/18 04:52:59;;;;;;;6.75;4.63;;;20.50;95.30;;;;;;5031872;28;20168;-40
2023/06/18 04:55:24;;;;;;;5.63;4.68;;;20.50;95.30;;;;;;5031813;28;20025;-36
2023/06/18 04:57:50;;;;;;;6.90;4.40;;;20.50;95.30;;;;;;5013590;28;20381;-41
2023/06/18 05:00:17;;;;;;;5.07;4.43;;;20.50;95.30;;;;;;5030594;28;20362;-37
2023/06/18 05:02:43;;;;;;;4.82;4.30;;;20.40;95.30;;;;;;5030870;28;20025;-35
2023/06/18 05:05:09;;;;;;;8.40;4.50;;;20.50;95.40;;;;;;5030777;28;20030;-37
2023/06/18 05:07:34;;;;;;;4.90;4.22;;;20.40;95.30;;;;;;5031147;28;20041;-36
2023/06/18 05:10:00;;;;;;;5.28;4.47;;;20.50;95.30;;;;;;5030994;28;20026;-37
2023/06/18 05:12:26;;;;;;;5.43;4.45;;;20.40;95.30;;;;;;5031154;28;20036;-37
2023/06/18 05:14:51;;;;;;;6.22;4.40;;;20.50;95.30;;;;;;5031079;28;20549;-40
2023/06/18 05:17:17;;;;;;;6.43;4.60;;;20.50;95.30;;;;;;5030515;28;20029;-38
2023/06/18 05:19:42;;;;;;;5.00;4.50;;;20.50;95.30;;;;;;5030669;28;20033;-42
2023/06/18 05:22:08;;;;;;;5.10;4.60;;;20.50;95.30;;;;;;5033355;28;20103;-36
2023/06/18 05:24:34;;;;;;;4.80;4.18;;;20.40;95.30;;;;;;5034168;28;20063;-36
2023/06/18 05:27:00;;;;;;;5.10;4.47;;;20.40;95.20;;;;;;5034298;28;20040;-40
2023/06/18 05:29:25;;;;;;;6.03;4.60;;;20.50;95.30;;;;;;5034016;28;20092;-37
2023/06/18 05:31:51;;;;;;;6.88;5.00;;;20.40;95.20;;;;;;5016573;28;20035;-36
2023/06/18 05:34:16;;;;;;;6.88;4.60;;;20.50;95.20;;;;;;5034130;28;20029;-37
2023/06/18 05:36:42;;;;;;;8.02;4.57;;;20.40;95.20;;;;;;5033963;28;20052;-37
2023/06/18 05:39:07;;;;;;;5.70;4.20;;;20.50;95.20;;;;;;5033936;28;20113;-40
2023/06/18 05:41:33;;;;;;;5.20;4.32;;;20.50;95.20;;;;;;5033778;28;20029;-40
2023/06/18 05:43:59;;;;;;;5.47;4.57;;;20.50;95.20;;;;;;5033796;28;20021;-40
2023/06/18 05:46:24;;;;;;;5.60;4.57;;;20.50;95.20;;;;;;5034646;28;20096;-38
2023/06/18 05:48:50;;;;;;;4.93;4.03;;;20.50;95.20;;;;;;5033645;28;20026;-40
2023/06/18 05:51:16;;;;;;;5.10;4.20;;;20.50;95.20;;;;;;5033644;28;20079;-34
2023/06/18 05:53:41;;;;;;;5.22;4.32;;;20.50;95.20;;;;;;5033738;28;20596;-37
2023/06/18 05:56:07;;;;;;;5.00;4.28;;;20.50;95.20;;;;;;5033702;28;20122;-36
2023/06/18 05:58:33;;;;;;;5.07;4.38;;;20.50;95.20;;;;;;5033436;28;20029;-37
2023/06/18 06:00:58;;;;;;;5.15;4.15;;;20.50;95.20;;;;;;5033408;28;20075;-39
2023/06/18 06:03:25;;;;;;;7.93;4.18;;;20.50;95.20;;;;;;5033557;28;20029;-36
2023/06/18 06:05:50;;;;;;;6.97;4.40;;;20.50;95.20;;;;;;5033441;28;20029;-41
2023/06/18 06:08:16;;;;;;;6.72;4.50;;;20.50;95.20;;;;;;5033527;28;20040;-36
2023/06/18 06:10:42;;;;;;;5.13;4.30;;;20.50;95.20;;;;;;5034257;28;20540;-36
2023/06/18 06:13:08;;;;;;;4.75;4.20;;;20.50;95.20;;;;;;5034019;28;20030;-36
2023/06/18 06:15:34;;;;;;;5.00;4.50;;;20.50;95.20;;;;;;5033284;28;20021;-39
2023/06/18 06:18:01;;;;;;;6.00;5.20;;;20.50;95.30;;;;;;5033119;28;20029;-36
2023/06/18 06:20:26;;;;;;;4.65;4.18;;;20.50;95.30;;;;;;5033631;28;20053;-34
2023/06/18 06:22:52;;;;;;;5.10;4.13;;;20.50;95.30;;;;;;5033478;28;20060;-37
2023/06/18 06:25:18;;;;;;;4.82;4.30;;;20.50;95.30;;;;;;5033740;28;20374;-38
2023/06/18 06:27:43;;;;;;;5.18;4.45;;;20.50;95.30;;;;;;5032854;28;20037;-37
2023/06/18 06:30:09;;;;;;;4.25;3.85;;;20.50;95.30;;;;;;5033242;28;20022;-34
2023/06/18 06:32:35;;;;;;;4.75;4.18;;;20.50;95.30;;;;;;5031805;28;20079;-40
2023/06/18 06:35:05;;;;;;;4.32;3.92;;;20.50;95.30;;;;;;5033146;28;20032;-36
2023/06/18 06:37:32;;;;;;;5.88;4.60;;;20.50;95.40;;;;;;5033142;28;20108;-38
2023/06/18 06:39:58;;;;;;;6.20;4.57;;;20.50;95.40;;;;;;5032805;28;20108;-37
2023/06/18 06:42:23;;;;;;;4.60;4.07;;;20.50;95.40;;;;;;5032569;28;20108;-36
2023/06/18 06:44:49;;;;;;;5.72;4.40;;;20.50;95.40;;;;;;5033308;28;20026;-39
2023/06/18 06:47:15;;;;;;;5.28;4.15;;;20.50;95.40;;;;;;5033414;28;20033;-37
2023/06/18 06:49:41;;;;;;;6.88;3.92;;;20.50;95.40;;;;;;5015087;28;20136;-40
2023/06/18 06:52:07;;;;;;;5.18;4.63;;;20.50;95.40;;;;;;5032479;28;20025;-35
2023/06/18 06:54:32;;;;;;;4.88;4.22;;;20.50;95.40;;;;;;5033417;28;20104;-36
2023/06/18 06:56:58;;;;;;;3.97;3.60;;;20.50;95.40;;;;;;5033652;28;20021;-34
2023/06/18 06:59:23;;;;;;;4.40;3.85;;;20.50;95.40;;;;;;5032870;28;20104;-36
2023/06/18 07:01:49;;;;;;;4.63;4.05;;;20.60;95.40;;;;;;5032281;28;20033;-34
2023/06/18 07:04:15;;;;;;;5.47;4.03;;;20.60;95.40;;;;;;5032452;28;20056;-36
2023/06/18 07:06:40;;;;;;;4.28;3.85;;;20.50;95.40;;;;;;5032194;28;20105;-40
2023/06/18 07:09:07;;;;;;;4.60;3.78;;;20.60;95.40;;;;;;5032591;28;20033;-40
2023/06/18 07:11:33;;;;;;;4.25;3.80;;;20.60;95.40;;;;;;5032218;28;20032;-36
2023/06/18 07:13:59;;;;;;;4.30;3.60;;;20.60;95.40;;;;;;5032258;28;20017;-36
2023/06/18 07:16:25;;;;;;;3.90;3.50;;;20.50;95.30;;;;;;5032816;28;20025;-35
2023/06/18 07:18:51;;;;;;;4.78;3.90;;;20.60;95.40;;;;;;5014277;28;20029;-34
2023/06/18 07:21:17;;;;;;;3.42;3.10;;;20.60;95.40;;;;;;5031863;28;20028;-35
2023/06/18 07:23:43;;;;;;;5.50;4.05;;;20.60;95.40;;;;;;5032070;28;20032;-37
2023/06/18 07:26:08;;;;;;;4.32;3.92;;;20.60;95.30;;;;;;5031836;28;20029;-39
2023/06/18 07:28:34;;;;;;;4.05;3.65;;;20.60;95.30;;;;;;5031924;28;20237;-34
2023/06/18 07:31:00;;;;;;;4.95;3.83;;;20.60;95.30;;;;;;5031714;28;20021;-41
2023/06/18 07:33:25;;;;;;;4.95;3.75;;;20.60;95.30;;;;;;5031835;28;20025;-36
2023/06/18 07:35:51;;;;;;;4.25;3.60;;;20.60;95.30;;;;;;5032372;28;20017;-39
2023/06/18 07:38:17;;;;;;;4.22;3.70;;;20.60;95.30;;;;;;5031721;28;20428;-40
2023/06/18 07:40:42;;;;;;;4.20;3.80;;;20.60;95.30;;;;;;5031458;28;20057;-34
2023/06/18 07:43:09;;;;;;;3.88;3.47;;;20.60;95.30;;;;;;5031548;28;20032;-37
2023/06/18 07:45:35;;;;;;;4.50;3.83;;;20.60;95.30;;;;;;5031580;28;20033;-37
2023/06/18 07:48:01;;;;;;;4.22;3.72;;;20.60;95.30;;;;;;5031500;28;20026;-36
2023/06/18 07:50:26;;;;;;;4.85;3.60;;;20.60;95.30;;;;;;5031409;28;20439;-40
2023/06/18 07:52:52;;;;;;;4.65;4.15;;;20.60;95.30;;;;;;5031499;28;20084;-36
2023/06/18 07:55:17;;;;;;;4.50;4.00;;;20.60;95.30;;;;;;5031366;28;20420;-37
2023/06/18 07:57:43;;;;;;;3.42;3.13;;;20.60;95.30;;;;;;5031424;28;20021;-37
2023/06/18 08:00:10;;;;;;;4.93;3.30;;;20.60;95.30;;;;;;5031248;28;20079;-37
2023/06/18 08:02:35;;;;;;;4.88;4.00;;;20.60;95.30;;;;;;5031411;28;20037;-34
2023/06/18 08:05:01;;;;;;;4.65;4.07;;;20.60;95.30;;;;;;5031801;28;20101;-33
2023/06/18 08:07:27;;;;;;;3.90;3.45;;;20.60;95.30;;;;;;5032057;28;20484;-40
2023/06/18 08:09:52;;;;;;;4.07;3.67;;;20.70;95.30;;;;;;5031326;28;20025;-39
2023/06/18 08:12:18;;;;;;;3.65;3.35;;;20.60;95.30;;;;;;5031181;28;20022;-34
2023/06/18 08:14:47;;;;;;;6.13;3.40;;;20.60;95.30;;;;;;5031253;28;20029;-37
2023/06/18 08:17:16;;;;;;;4.97;3.55;;;20.70;95.30;;;;;;5031121;28;20152;-37
2023/06/18 08:19:44;;;;;;;3.75;3.25;;;20.70;95.30;;;;;;5031733;28;20381;-36
2023/06/18 08:22:11;;;;;;;4.28;3.63;;;20.70;95.30;;;;;;5030930;28;20033;-40
2023/06/18 08:24:37;;;;;;;3.78;3.30;;;20.70;95.30;;;;;;5031041;28;20037;-40
2023/06/18 08:27:03;;;;;;;3.60;3.25;;;20.60;95.30;;;;;;5032252;28;20029;-44
2023/06/18 08:29:28;;;;;;;4.38;3.55;;;20.70;95.30;;;;;;5032105;28;20033;-40
2023/06/18 08:31:54;;;;;;;3.67;3.35;;;20.70;95.30;;;;;;5030898;28;20053;-34
2023/06/18 08:34:20;;;;;;;5.00;3.80;;;20.70;95.30;;;;;;5032329;28;20018;-37
2023/06/18 08:36:47;;;;;;;3.83;3.30;;;20.70;95.30;;;;;;5030960;28;20048;-39
2023/06/18 08:39:13;;;;;;;8.10;3.63;;;20.70;95.30;;;;;;5030963;28;20025;-39
2023/06/18 08:41:42;;;;;;;4.10;3.35;;;20.70;95.30;;;;;;5031556;28;20375;-36
2023/06/18 08:44:08;;;;;;;4.28;3.63;;;20.70;95.30;;;;;;5031471;28;20056;-40
2023/06/18 08:46:35;;;;;;;3.90;2.95;;;20.70;95.30;;;;;;5031052;28;20485;-37
2023/06/18 08:49:02;;;;;;;4.13;3.33;;;20.70;95.30;;;;;;5031277;28;20428;-34
2023/06/18 08:51:29;;;;;;;4.00;3.60;;;20.70;95.30;;;;;;5031154;28;20388;-39
2023/06/18 08:54:17;;;;;;;4.18;3.63;;;20.70;95.30;;;;;;5030917;28;20022;-34
2023/06/18 08:56:45;;;;;;;3.90;3.50;;;20.70;95.30;;;;;;5034765;28;20537;-36
2023/06/18 08:59:12;;;;;;;4.28;3.28;;;20.70;95.30;;;;;;5034752;28;20032;-40
2023/06/18 09:01:38;;;;;;;4.85;3.35;;;20.70;95.30;;;;;;5034541;28;20025;-37
2023/06/18 09:04:05;;;;;;;4.03;3.63;;;20.80;95.30;;;;;;5034525;28;20499;-36
2023/06/18 09:06:32;;;;;;;4.82;3.63;;;20.80;95.30;;;;;;5034616;28;20045;-40
2023/06/18 09:09:00;;;;;;;4.53;3.70;;;20.80;95.30;;;;;;5034661;28;20037;-36
2023/06/18 09:11:26;;;;;;;3.90;3.33;;;20.80;95.30;;;;;;5035912;28;20025;-40
2023/06/18 09:13:52;;;;;;;4.53;3.60;;;20.80;95.30;;;;;;5034765;28;20412;-37
2023/06/18 09:16:18;;;;;;;3.80;3.20;;;20.80;95.30;;;;;;5035558;28;20152;-40
2023/06/18 09:18:45;;;;;;;5.53;3.20;;;20.80;95.30;;;;;;5035352;28;20021;-34
2023/06/18 09:21:30;;;;;;;4.05;3.45;;;20.80;95.30;;;;;;5034569;28;20045;-38
2023/06/18 09:23:56;;;;;;;4.50;3.38;;;20.80;95.30;;;;;;5034344;28;20036;-37
2023/06/18 09:26:21;;;;;;;3.42;3.13;;;20.80;95.30;;;;;;5035087;28;20021;-40
2023/06/18 09:28:49;;;;;;;3.45;3.15;;;20.80;95.30;;;;;;5034039;28;20120;-37
2023/06/18 09:31:25;;;;;;;4.22;3.25;;;20.80;95.30;;;;;;5033998;28;20026;-36
2023/06/18 09:33:51;;;;;;;3.80;3.30;;;20.80;95.30;;;;;;5034265;28;20365;-36
2023/06/18 09:36:16;;;;;;;3.78;3.30;;;20.80;95.30;;;;;;5034450;28;20024;-36
2023/06/18 09:38:42;;;;;;;5.15;3.15;;;20.90;95.30;;;;;;5034110;28;20542;-37
2023/06/18 09:41:17;;;;;;;3.90;3.30;;;20.80;95.30;;;;;;5033836;28;20021;-37
2023/06/18 09:43:47;;;;;;;3.78;3.28;;;20.80;95.30;;;;;;5035220;28;20086;-37
2023/06/18 09:46:12;;;;;;;3.78;3.20;;;20.90;95.30;;;;;;5033923;28;20024;-35
2023/06/18 09:48:44;;;;;;;4.35;3.25;;;20.80;95.20;;;;;;5033690;28;20021;-39
2023/06/18 09:51:10;;;;;;;4.22;3.13;;;20.90;95.20;;;;;;5033931;28;20049;-37
2023/06/18 09:53:36;;;;;;;5.43;3.50;;;20.90;95.30;;;;;;5034026;28;20057;-34
2023/06/18 09:56:16;;;;;;;3.30;3.00;;;20.90;95.30;;;;;;5034204;28;20029;-40
2023/06/18 09:58:43;;;;;;;4.65;3.10;;;20.90;95.30;;;;;;5033701;28;20023;-37
2023/06/18 10:01:10;;;;;;;4.07;3.38;;;20.90;95.30;;;;;;5034328;28;20037;-40
2023/06/18 10:03:36;;;;;;;3.80;2.88;;;20.90;95.30;;;;;;5033653;28;20029;-40
2023/06/18 10:06:16;;;;;;;3.70;3.08;;;20.90;95.30;;;;;;5033545;28;20075;-37
2023/06/18 10:08:46;;;;;;;4.45;3.58;;;20.90;95.30;;;;;;5033316;28;20030;-34
2023/06/18 10:11:15;;;;;;;3.30;2.97;;;20.90;95.20;;;;;;5033785;28;20052;-36
2023/06/18 10:13:49;;;;;;;4.00;3.05;;;20.90;95.20;;;;;;5033782;28;20052;-37
2023/06/18 10:16:17;;;;;;;3.33;3.03;;;20.90;95.20;;;;;;5033436;28;20033;-36
2023/06/18 10:18:51;;;;;;;4.10;3.45;;;20.90;95.20;;;;;;5033506;28;20116;-36
2023/06/18 10:21:18;;;;;;;3.83;3.47;;;20.90;95.30;;;;;;5034441;28;20025;-36
2023/06/18 10:23:49;;;;;;;3.40;3.10;;;20.90;95.20;;;;;;5033254;28;20090;-40
2023/06/18 10:26:16;;;;;;;3.28;2.83;;;21.00;95.30;;;;;;5034332;28;20026;-36
2023/06/18 10:28:42;;;;;;;3.65;3.20;;;21.00;95.30;;;;;;5032985;28;20021;-40
2023/06/18 10:31:08;;;;;;;3.88;3.05;;;21.00;95.30;;;;;;5032895;28;20385;-37
2023/06/18 10:33:34;;;;;;;3.83;3.22;;;21.00;95.30;;;;;;5033146;28;20021;-34
2023/06/18 10:36:00;;;;;;;5.28;3.42;;;21.00;95.30;;;;;;5033741;28;20024;-34
2023/06/18 10:38:27;;;;;;;3.70;3.30;;;21.00;95.30;;;;;;5032849;28;20112;-37
2023/06/18 10:41:09;;;;;;;3.95;3.55;;;21.00;95.20;;;;;;5032761;28;20029;-37
2023/06/18 10:43:41;;;;;;;3.45;2.92;;;21.00;95.20;;;;;;5033186;28;20040;-37
2023/06/18 10:46:09;;;;;;;5.60;3.08;;;21.00;95.20;;;;;;5033001;28;20029;-35
2023/06/18 10:48:35;;;;;;;3.50;3.00;;;21.10;95.20;;;;;;5032645;28;20037;-40
2023/06/18 10:51:19;;;;;;;4.13;3.20;;;21.10;95.20;;;;;;5032599;28;20484;-37
2023/06/18 10:53:46;;;;;;;3.25;2.90;;;21.10;95.20;;;;;;5034249;28;20452;-38
2023/06/18 10:56:16;;;;;;;3.35;3.03;;;21.10;95.20;;;;;;5033171;28;20025;-42
2023/06/18 10:58:42;;;;;;;3.45;3.08;;;21.10;95.20;;;;;;5032324;28;20033;-37
2023/06/18 11:01:24;;;;;;;3.70;3.20;;;21.10;95.20;;;;;;5032584;28;20029;-38
2023/06/18 11:04:01;;;;;;;5.25;2.90;;;21.10;95.20;;;;;;5033290;28;20450;-35
2023/06/18 11:06:29;;;;;;;3.67;2.70;;;21.10;95.10;;;;;;5033390;28;20031;-34
2023/06/18 11:08:55;;;;;;;3.33;3.03;;;21.10;95.10;;;;;;5032521;28;20061;-38
2023/06/18 11:11:24;;;;;;;4.25;3.10;;;21.10;95.20;;;;;;5032584;28;20055;-39
2023/06/18 11:13:56;;;;;;;3.58;3.15;;;21.10;95.10;;;;;;5032349;28;20409;-40
2023/06/18 11:16:22;;;;;;;3.28;2.92;;;21.10;95.20;;;;;;5032530;28;20095;-37
2023/06/18 11:18:50;;;;;;;3.20;2.90;;;21.10;95.10;;;;;;5032905;28;20036;-37
2023/06/18 11:21:17;;;;;;;3.75;3.20;;;21.20;95.20;;;;;;5032595;28;20032;-38
2023/06/18 11:23:43;;;;;;;3.10;2.80;;;21.20;95.20;;;;;;5032124;28;20033;-37
2023/06/18 11:26:20;;;;;;;4.70;3.53;;;21.20;95.20;;;;;;5032112;28;20028;-34
2023/06/18 11:28:46;;;;;;;3.15;2.85;;;21.20;95.10;;;;;;5032031;28;20101;-42
2023/06/18 11:31:12;;;;;;;3.47;3.10;;;21.20;95.10;;;;;;5032618;28;20025;-36
2023/06/18 11:33:39;;;;;;;3.72;3.08;;;21.20;95.10;;;;;;5032114;28;20017;-39
2023/06/18 11:36:13;;;;;;;4.07;2.70;;;21.20;95.10;;;;;;5031756;28;20079;-37
2023/06/18 11:38:40;;;;;;;3.53;2.80;;;21.20;95.10;;;;;;5031926;28;20022;-38
2023/06/18 11:41:06;;;;;;;3.35;3.05;;;21.20;95.10;;;;;;5031626;28;20025;-42
2023/06/18 11:43:49;;;;;;;3.30;2.88;;;21.20;95.00;;;;;;5032111;28;20079;-37
2023/06/18 11:46:30;;;;;;;3.92;3.30;;;21.20;95.10;;;;;;5032332;28;20509;-37
2023/06/18 11:48:56;;;;;;;3.78;3.00;;;21.20;95.10;;;;;;5031675;28;20029;-36
2023/06/18 11:51:24;;;;;;;3.38;2.97;;;21.20;95.10;;;;;;5032665;28;20029;-35
2023/06/18 11:53:52;;;;;;;3.65;3.30;;;21.20;95.10;;;;;;5014023;28;20021;-36
2023/06/18 11:56:22;;;;;;;3.28;2.97;;;21.20;95.10;;;;;;5031583;28;20022;-37
2023/06/18 11:58:47;;;;;;;2.78;2.47;;;21.20;95.10;;;;;;5033051;28;20036;-38
2023/06/18 12:01:16;;;;;;;3.42;3.13;;;21.20;95.00;;;;;;5032390;28;20034;-38
2023/06/18 12:03:42;;;;;;;2.95;2.72;;;21.30;95.10;;;;;;5031408;28;20028;-36
2023/06/18 12:06:15;;;;;;;4.63;3.05;;;21.20;95.00;;;;;;5031625;28;20029;-38
2023/06/18 12:08:46;;;;;;;3.30;3.00;;;21.30;95.10;;;;;;5031099;28;20475;-37
2023/06/18 12:11:35;;;;;;;3.53;2.70;;;21.30;95.00;;;;;;5032231;28;20389;-36
2023/06/18 12:14:08;;;;;;;3.92;3.00;;;21.30;95.00;;;;;;5031515;28;20021;-34
2023/06/18 12:16:38;;;;;;;3.88;2.90;;;21.30;95.00;;;;;;5014122;28;20022;-34
2023/06/18 12:19:04;;;;;;;3.10;2.80;;;21.30;95.00;;;;;;5031119;28;20025;-36
2023/06/18 12:21:30;;;;;;;3.38;2.83;;;21.30;95.00;;;;;;5031479;28;20033;-36
2023/06/18 12:23:57;;;;;;;5.05;2.97;;;21.30;95.00;;;;;;5031703;28;20072;-41
2023/06/18 12:26:23;;;;;;;4.65;2.65;;;21.30;95.00;;;;;;5031247;28;20481;-39
2023/06/18 12:28:49;;;;;;;3.15;2.85;;;21.30;95.00;;;;;;5030982;28;20112;-37
2023/06/18 12:31:15;;;;;;;3.20;2.80;;;21.30;95.00;;;;;;5034224;28;20101;-37
2023/06/18 12:33:42;;;;;;;3.25;2.85;;;21.30;94.90;;;;;;5035313;28;20072;-37
2023/06/18 12:36:08;;;;;;;4.13;2.50;;;21.30;94.90;;;;;;5035743;28;20026;-35
2023/06/18 12:38:47;;;;;;;3.10;2.78;;;21.30;94.90;;;;;;5035450;28;20105;-37
2023/06/18 12:41:25;;;;;;;4.35;2.72;;;21.30;94.90;;;;;;5034940;28;20025;-37
2023/06/18 12:43:52;;;;;;;3.45;2.95;;;21.40;94.90;;;;;;5035070;28;20377;-41
2023/06/18 12:46:25;;;;;;;3.17;2.88;;;21.30;94.90;;;;;;5035073;28;20060;-36
2023/06/18 12:48:52;;;;;;;2.97;2.67;;;21.40;94.90;;;;;;5035275;28;20056;-36